Time;durP1;ratioP1;P1;durP2;ratioP2;P2;SDS_P1;SDS_P2;PMS_P1;PMS_P2;Temp;Humidity;BMP_temperature;BMP_pressure;BME280_temperature;BME280_humidity;BME280_pressure;Samples;Min_cycle;Max_cycle;Signal;HPM_P1;HPM_P2
2022/08/09 00:00:17;;;;;;;0.50;0.50;;;14.50;99.90;;;;;;5114465;28;20468;-75
2022/08/09 00:02:43;;;;;;;0.50;0.50;;;14.40;99.90;;;;;;5114866;28;20053;-75
2022/08/09 00:05:09;;;;;;;1.30;0.90;;;14.40;99.90;;;;;;5114342;28;20023;-76
2022/08/09 00:07:34;;;;;;;0.55;0.55;;;14.40;99.90;;;;;;5114257;28;20088;-75
2022/08/09 00:10:00;;;;;;;0.40;0.40;;;14.40;99.90;;;;;;5114294;28;20515;-75
2022/08/09 00:12:26;;;;;;;0.57;0.57;;;14.40;99.90;;;;;;5114390;28;20051;-75
2022/08/09 00:14:52;;;;;;;0.50;0.50;;;14.40;99.90;;;;;;5114299;28;20426;-73
2022/08/09 00:17:17;;;;;;;0.93;0.60;;;14.30;99.90;;;;;;5114210;28;20447;-74
2022/08/09 00:19:43;;;;;;;0.40;0.40;;;14.30;99.90;;;;;;5114163;28;20023;-74
2022/08/09 00:22:09;;;;;;;0.82;0.77;;;14.30;99.90;;;;;;5114227;28;20076;-73
2022/08/09 00:24:34;;;;;;;2.33;1.85;;;14.20;99.90;;;;;;5113932;28;20034;-73
2022/08/09 00:27:01;;;;;;;1.08;0.98;;;14.20;99.90;;;;;;5113840;28;20036;-74
2022/08/09 00:29:27;;;;;;;0.57;0.57;;;14.20;99.90;;;;;;5114019;28;20024;-74
2022/08/09 00:31:53;;;;;;;0.32;0.32;;;14.20;99.90;;;;;;5113953;28;20023;-75
2022/08/09 00:34:19;;;;;;;1.73;0.75;;;14.00;99.90;;;;;;5114006;28;20015;-74
2022/08/09 00:36:47;;;;;;;1.15;0.65;;;13.90;99.90;;;;;;5114006;28;20081;-75
2022/08/09 00:39:12;;;;;;;1.65;0.52;;;13.80;99.90;;;;;;5113884;28;20015;-75
2022/08/09 00:41:38;;;;;;;0.60;0.55;;;13.80;99.90;;;;;;5113815;28;20123;-76
2022/08/09 00:44:04;;;;;;;0.32;0.32;;;13.70;99.90;;;;;;5113821;28;20015;-73
2022/08/09 00:46:29;;;;;;;0.82;0.82;;;13.70;99.90;;;;;;5113754;28;20524;-75
2022/08/09 00:48:55;;;;;;;0.70;0.70;;;13.80;99.90;;;;;;5113914;28;20025;-73
2022/08/09 00:51:21;;;;;;;1.27;0.60;;;13.80;99.90;;;;;;5113931;28;20031;-73
2022/08/09 00:53:47;;;;;;;2.42;1.30;;;13.70;99.90;;;;;;5117989;28;20043;-73
2022/08/09 00:56:14;;;;;;;0.40;0.40;;;13.80;99.90;;;;;;5117956;28;20022;-74
2022/08/09 00:58:40;;;;;;;0.70;0.70;;;13.70;99.90;;;;;;5099669;28;20372;-74
2022/08/09 01:01:12;;;;;;;0.50;0.50;;;13.70;99.90;;;;;;5117889;28;20030;-75
2022/08/09 01:03:45;;;;;;;0.55;0.50;;;13.60;99.90;;;;;;5118000;28;20031;-75
2022/08/09 01:06:35;;;;;;;1.25;0.70;;;13.50;99.90;;;;;;5117864;28;20059;-75
2022/08/09 01:09:03;;;;;;;;;;;13.40;99.90;;;;;;5099936;28;20070;-75
2022/08/09 01:11:35;;;;;;;0.95;0.95;;;13.40;99.90;;;;;;5099740;28;19904;-74
2022/08/09 01:14:02;;;;;;;0.52;0.52;;;13.40;99.90;;;;;;5099339;28;20353;-75
2022/08/09 01:16:39;;;;;;;1.17;0.73;;;13.40;99.90;;;;;;5099369;28;20034;-75
2022/08/09 01:19:15;;;;;;;0.30;0.30;;;13.40;99.90;;;;;;5117631;28;20023;-73
2022/08/09 01:21:50;;;;;;;1.13;0.70;;;13.40;99.90;;;;;;5117322;28;20023;-74
2022/08/09 01:24:33;;;;;;;0.88;0.70;;;13.40;99.90;;;;;;5117442;28;20027;-73
2022/08/09 01:27:06;;;;;;;0.98;0.85;;;13.40;99.90;;;;;;5098987;28;20031;-75
2022/08/09 01:29:46;;;;;;;0.80;0.80;;;13.30;99.90;;;;;;5117529;28;20023;-75
2022/08/09 01:32:16;;;;;;;0.93;0.60;;;13.20;99.90;;;;;;5117325;28;20553;-76
2022/08/09 01:34:43;;;;;;;0.70;0.70;;;13.10;99.90;;;;;;5117341;28;20549;-76
2022/08/09 01:37:11;;;;;;;0.55;0.55;;;13.10;99.90;;;;;;5117378;28;20020;-73
2022/08/09 01:39:39;;;;;;;0.73;0.73;;;13.00;99.90;;;;;;5098778;28;20209;-75
2022/08/09 01:42:07;;;;;;;0.90;0.70;;;13.00;99.90;;;;;;5117098;28;20043;-73
2022/08/09 01:44:33;;;;;;;0.65;0.30;;;12.90;99.90;;;;;;5117100;28;20488;-75
2022/08/09 01:47:01;;;;;;;0.40;0.40;;;13.00;99.90;;;;;;5098760;28;20048;-75
2022/08/09 01:49:32;;;;;;;1.13;0.93;;;12.90;99.90;;;;;;5117019;28;20026;-76
2022/08/09 01:52:02;;;;;;;0.77;0.77;;;12.90;99.90;;;;;;5116762;28;20043;-75
2022/08/09 01:54:35;;;;;;;1.05;0.50;;;12.80;99.90;;;;;;5098519;28;20070;-73
2022/08/09 01:57:06;;;;;;;1.65;0.98;;;12.80;99.90;;;;;;5098211;28;20480;-75
2022/08/09 01:59:33;;;;;;;0.32;0.32;;;12.70;99.90;;;;;;5116784;28;20035;-74
2022/08/09 02:02:00;;;;;;;0.63;0.60;;;12.70;99.90;;;;;;5098535;28;20024;-75
2022/08/09 02:04:28;;;;;;;0.70;0.70;;;12.70;99.90;;;;;;5116475;28;20019;-73
2022/08/09 02:07:10;;;;;;;0.25;0.25;;;12.60;99.90;;;;;;5098704;28;20051;-75
2022/08/09 02:09:41;;;;;;;0.55;0.55;;;12.70;99.90;;;;;;5116522;28;20095;-75
2022/08/09 02:12:10;;;;;;;0.60;0.60;;;12.70;99.90;;;;;;5098175;28;20024;-74
2022/08/09 02:14:39;;;;;;;0.50;0.50;;;12.60;99.90;;;;;;5116371;28;20017;-75
2022/08/09 02:17:06;;;;;;;1.00;1.00;;;12.70;99.90;;;;;;5098196;28;20073;-77
2022/08/09 02:19:31;;;;;;;1.33;0.95;;;12.60;99.90;;;;;;5116513;28;20024;-75
2022/08/09 02:22:04;;;;;;;0.90;0.90;;;12.50;99.90;;;;;;5116406;28;20016;-76
2022/08/09 02:24:36;;;;;;;0.82;0.77;;;12.40;99.90;;;;;;5116426;28;20019;-75
2022/08/09 02:27:07;;;;;;;0.52;0.52;;;12.50;99.90;;;;;;5116069;28;20031;-75
2022/08/09 02:29:39;;;;;;;0.55;0.52;;;12.50;99.90;;;;;;5116195;28;20020;-75
2022/08/09 02:32:09;;;;;;;0.88;0.88;;;12.50;99.90;;;;;;5116052;28;20391;-75
2022/08/09 02:34:37;;;;;;;0.70;0.70;;;12.50;99.90;;;;;;5116123;28;20030;-76
2022/08/09 02:37:06;;;;;;;0.60;0.60;;;12.40;99.90;;;;;;5116167;28;20471;-73
2022/08/09 02:39:38;;;;;;;0.85;0.85;;;12.30;99.90;;;;;;5116079;28;20016;-75
2022/08/09 02:42:17;;;;;;;0.50;0.50;;;12.30;99.90;;;;;;5116592;28;20092;-75
2022/08/09 02:44:51;;;;;;;0.77;0.77;;;12.20;99.90;;;;;;5116239;28;20119;-75
2022/08/09 02:47:20;;;;;;;1.75;0.47;;;12.10;99.90;;;;;;5116122;28;20059;-75
2022/08/09 02:50:05;;;;;;;0.60;0.60;;;12.00;99.90;;;;;;5115770;28;20015;-75
2022/08/09 02:52:51;;;;;;;1.90;0.65;;;11.90;99.90;;;;;;5115676;28;20035;-75
2022/08/09 02:55:18;;;;;;;1.02;1.02;;;11.90;99.90;;;;;;5115776;28;20405;-75
2022/08/09 02:57:46;;;;;;;1.40;0.90;;;12.00;99.90;;;;;;5115679;28;20050;-75
2022/08/09 03:00:13;;;;;;;0.65;0.65;;;12.00;99.90;;;;;;5115658;28;20044;-75
2022/08/09 03:02:42;;;;;;;0.95;0.95;;;12.10;99.90;;;;;;5115517;28;20028;-74
2022/08/09 03:05:12;;;;;;;1.08;1.05;;;12.00;99.90;;;;;;5115510;28;20024;-74
2022/08/09 03:07:39;;;;;;;0.85;0.82;;;12.00;99.90;;;;;;5096974;28;20035;-74
2022/08/09 03:10:06;;;;;;;0.85;0.85;;;12.00;99.90;;;;;;5115436;28;20027;-75
2022/08/09 03:12:34;;;;;;;0.80;0.80;;;12.00;99.90;;;;;;5115658;28;20472;-75
2022/08/09 03:15:00;;;;;;;0.93;0.93;;;12.00;99.90;;;;;;5114722;28;20026;-75
2022/08/09 03:17:28;;;;;;;1.20;0.90;;;12.00;99.90;;;;;;5115279;28;20262;-74
2022/08/09 03:19:58;;;;;;;0.60;0.60;;;12.00;99.90;;;;;;5115238;28;20028;-75
2022/08/09 03:22:26;;;;;;;0.75;0.75;;;11.90;99.90;;;;;;5115502;28;20057;-73
2022/08/09 03:24:55;;;;;;;1.02;1.02;;;11.90;99.90;;;;;;5115053;28;20376;-74
2022/08/09 03:27:22;;;;;;;0.85;0.60;;;11.80;99.90;;;;;;5114864;28;20039;-75
2022/08/09 03:29:50;;;;;;;0.32;0.32;;;11.90;99.90;;;;;;5115012;28;20016;-75
2022/08/09 03:32:17;;;;;;;0.95;0.93;;;11.90;99.90;;;;;;5115311;28;20387;-74
2022/08/09 03:34:43;;;;;;;0.75;0.75;;;11.90;99.90;;;;;;5114949;28;20016;-75
2022/08/09 03:37:09;;;;;;;0.50;0.50;;;11.90;99.90;;;;;;5114837;28;20110;-74
2022/08/09 03:39:38;;;;;;;0.90;0.90;;;11.90;99.90;;;;;;5115234;28;20106;-76
2022/08/09 03:42:04;;;;;;;0.57;0.57;;;11.90;99.90;;;;;;5114756;28;20380;-74
2022/08/09 03:44:30;;;;;;;1.92;0.95;;;11.90;99.90;;;;;;5114972;28;20030;-75
2022/08/09 03:46:55;;;;;;;0.80;0.60;;;11.80;99.90;;;;;;5114660;28;20050;-74
2022/08/09 03:49:26;;;;;;;1.40;0.88;;;11.80;99.90;;;;;;5114671;28;20361;-75
2022/08/09 03:51:57;;;;;;;0.73;0.73;;;11.80;99.90;;;;;;5114379;28;20039;-74
2022/08/09 03:54:25;;;;;;;7.30;0.75;;;11.80;99.90;;;;;;5114730;28;20156;-75
2022/08/09 03:56:52;;;;;;;0.70;0.70;;;11.80;99.90;;;;;;5114449;28;20024;-75
2022/08/09 03:59:19;;;;;;;0.82;0.82;;;11.80;99.90;;;;;;5114424;28;20024;-74
2022/08/09 04:01:45;;;;;;;2.47;1.20;;;11.70;99.90;;;;;;5114356;28;20441;-74
2022/08/09 04:04:13;;;;;;;0.60;0.60;;;11.70;99.90;;;;;;5095993;28;20114;-74
2022/08/09 04:06:39;;;;;;;1.10;1.10;;;11.70;99.90;;;;;;5114268;28;20404;-74
2022/08/09 04:09:06;;;;;;;1.73;1.40;;;11.70;99.90;;;;;;5114475;28;20117;-74
2022/08/09 04:12:05;;;;;;;0.52;0.52;;;11.70;99.90;;;;;;5114275;28;20019;-75
2022/08/09 04:14:34;;;;;;;0.43;0.43;;;11.70;99.90;;;;;;5114216;28;20031;-74
2022/08/09 04:16:59;;;;;;;0.82;0.82;;;11.60;99.90;;;;;;5114146;28;20028;-75
2022/08/09 04:19:25;;;;;;;0.85;0.85;;;11.60;99.90;;;;;;5114010;28;20038;-75
2022/08/09 04:21:54;;;;;;;0.60;0.55;;;11.60;99.90;;;;;;5114110;28;20047;-75
2022/08/09 04:24:20;;;;;;;0.82;0.82;;;11.60;99.90;;;;;;5114242;28;20030;-75
2022/08/09 04:26:46;;;;;;;0.90;0.90;;;11.60;99.90;;;;;;5113102;28;20031;-75
2022/08/09 04:29:12;;;;;;;0.65;0.65;;;11.60;99.90;;;;;;5114237;28;20030;-74
2022/08/09 04:31:37;;;;;;;0.77;0.77;;;11.60;99.90;;;;;;5114095;28;20036;-74
2022/08/09 04:34:03;;;;;;;0.98;0.90;;;11.60;99.90;;;;;;5114022;28;20487;-75
2022/08/09 04:36:31;;;;;;;0.65;0.65;;;11.70;99.90;;;;;;5113956;28;20480;-74
2022/08/09 04:39:00;;;;;;;0.68;0.68;;;11.70;99.90;;;;;;5113893;28;20103;-74
2022/08/09 04:41:26;;;;;;;0.83;0.83;;;11.70;99.90;;;;;;5113923;28;20036;-75
2022/08/09 04:43:53;;;;;;;0.88;0.88;;;11.80;99.90;;;;;;5114139;28;20019;-75
2022/08/09 04:46:20;;;;;;;0.50;0.50;;;11.80;99.90;;;;;;5113816;28;20042;-75
2022/08/09 04:48:46;;;;;;;0.98;0.98;;;11.80;99.90;;;;;;5113929;28;20361;-74
2022/08/09 04:51:12;;;;;;;0.95;0.88;;;11.80;99.90;;;;;;5095706;28;20035;-75
2022/08/09 04:53:38;;;;;;;0.75;0.70;;;11.80;99.90;;;;;;5113696;28;20043;-75
2022/08/09 04:56:04;;;;;;;0.60;0.60;;;11.80;99.90;;;;;;5113678;28;20024;-74
2022/08/09 04:58:29;;;;;;;0.77;0.77;;;11.80;99.90;;;;;;5095503;28;20076;-76
2022/08/09 05:00:56;;;;;;;1.30;1.08;;;11.80;99.90;;;;;;5113736;28;20035;-74
2022/08/09 05:03:22;;;;;;;1.33;1.23;;;11.80;99.90;;;;;;5114037;28;20031;-74
2022/08/09 05:05:48;;;;;;;1.63;1.15;;;11.90;99.90;;;;;;5095288;28;20383;-74
2022/08/09 05:08:14;;;;;;;0.63;0.63;;;12.00;99.90;;;;;;5113640;28;20024;-76
2022/08/09 05:10:40;;;;;;;0.88;0.88;;;12.20;99.90;;;;;;5113648;28;20020;-75
2022/08/09 05:13:06;;;;;;;2.45;0.68;;;12.20;99.90;;;;;;5113581;28;20107;-75
2022/08/09 05:15:32;;;;;;;1.20;1.10;;;12.30;99.90;;;;;;5095456;28;20410;-75
2022/08/09 05:17:58;;;;;;;0.45;0.45;;;12.40;99.90;;;;;;5113631;28;20027;-75
2022/08/09 05:20:26;;;;;;;0.50;0.50;;;12.50;99.90;;;;;;5113590;28;20412;-75
2022/08/09 05:22:52;;;;;;;0.80;0.60;;;12.60;99.90;;;;;;5113604;28;20067;-75
2022/08/09 05:25:19;;;;;;;0.60;0.60;;;12.70;99.90;;;;;;5113745;28;20047;-75
2022/08/09 05:27:45;;;;;;;1.30;1.20;;;12.80;99.90;;;;;;5113407;28;20035;-75
2022/08/09 05:30:12;;;;;;;1.52;1.33;;;12.90;99.90;;;;;;5113302;28;20020;-74
2022/08/09 05:32:37;;;;;;;0.73;0.70;;;12.90;99.90;;;;;;5113317;28;20031;-74
2022/08/09 05:35:04;;;;;;;0.60;0.55;;;13.00;99.90;;;;;;5113475;28;20069;-74
2022/08/09 05:37:30;;;;;;;0.80;0.80;;;13.10;99.90;;;;;;5113741;28;20019;-75
2022/08/09 05:39:57;;;;;;;0.80;0.80;;;13.30;99.90;;;;;;5117422;28;20016;-75
2022/08/09 05:42:24;;;;;;;0.80;0.50;;;13.30;99.90;;;;;;5117192;28;20047;-74
2022/08/09 05:44:51;;;;;;;1.20;0.95;;;13.50;99.90;;;;;;5116905;28;20027;-75
2022/08/09 05:47:18;;;;;;;0.85;0.85;;;13.60;99.90;;;;;;5116866;28;20027;-74
2022/08/09 05:49:44;;;;;;;0.93;0.85;;;13.70;99.90;;;;;;5116863;28;20468;-74
2022/08/09 05:52:10;;;;;;;0.55;0.55;;;13.80;99.90;;;;;;5116955;28;20080;-74
2022/08/09 05:54:36;;;;;;;1.08;0.73;;;;;;;;;;5116960;28;20464;-75
2022/08/09 05:57:01;;;;;;;0.95;0.95;;;14.00;99.90;;;;;;5098661;28;20034;-76
2022/08/09 05:59:27;;;;;;;0.50;0.50;;;14.20;99.90;;;;;;5116623;28;20020;-76
2022/08/09 06:01:53;;;;;;;1.05;0.95;;;14.40;99.90;;;;;;5098134;28;20034;-77
2022/08/09 06:04:18;;;;;;;1.00;1.00;;;14.50;99.90;;;;;;5098071;28;20030;-77
2022/08/09 06:06:44;;;;;;;0.60;0.60;;;14.70;99.90;;;;;;5116142;28;20059;-76
2022/08/09 06:09:10;;;;;;;1.75;1.30;;;15.00;99.90;;;;;;5116152;28;20046;-77
2022/08/09 06:11:35;;;;;;;1.10;0.98;;;15.20;99.90;;;;;;5117169;28;20047;-76
2022/08/09 06:14:01;;;;;;;1.15;1.05;;;15.40;99.90;;;;;;5117873;28;20081;-77
2022/08/09 06:16:28;;;;;;;1.38;0.98;;;15.50;99.90;;;;;;5121997;28;20376;-77
2022/08/09 06:18:53;;;;;;;1.08;0.88;;;15.70;99.90;;;;;;5107246;28;20098;-78
2022/08/09 06:21:19;;;;;;;3.60;1.23;;;15.90;99.90;;;;;;5108215;28;20257;-77
2022/08/09 06:23:46;;;;;;;0.35;0.35;;;16.10;99.90;;;;;;5126090;28;20246;-76
2022/08/09 06:26:12;;;;;;;0.90;0.90;;;16.30;99.90;;;;;;5126375;28;20223;-77
2022/08/09 06:28:39;;;;;;;0.63;0.63;;;16.40;99.90;;;;;;5107277;28;20315;-76
2022/08/09 06:31:04;;;;;;;0.47;0.47;;;16.60;99.90;;;;;;5125606;28;20083;-75
2022/08/09 06:33:30;;;;;;;0.80;0.80;;;17.10;99.90;;;;;;5107287;28;20019;-76
2022/08/09 06:35:56;;;;;;;0.50;0.50;;;17.60;99.90;;;;;;5125089;28;20032;-75
2022/08/09 06:38:21;;;;;;;0.70;0.70;;;17.80;99.90;;;;;;5122068;28;20384;-75
2022/08/09 06:40:47;;;;;;;0.50;0.50;;;17.70;99.90;;;;;;5119705;28;20472;-76
2022/08/09 06:43:13;;;;;;;0.50;0.50;;;17.70;99.90;;;;;;5115856;28;20019;-76
2022/08/09 06:45:38;;;;;;;2.58;0.60;;;17.80;99.90;;;;;;5117236;28;20058;-78
2022/08/09 06:48:04;;;;;;;0.85;0.85;;;17.80;99.90;;;;;;5116698;28;20038;-75
2022/08/09 06:50:31;;;;;;;0.52;0.52;;;17.90;99.90;;;;;;5118211;28;20027;-76
2022/08/09 06:52:59;;;;;;;0.63;0.63;;;17.50;99.90;;;;;;5119440;28;20073;-73
2022/08/09 06:55:28;;;;;;;0.60;0.60;;;17.90;99.90;;;;;;5116281;28;20070;-76
2022/08/09 06:57:54;;;;;;;;;;;17.90;99.90;;;;;;5117586;28;20023;-74
2022/08/09 07:00:20;;;;;;;0.90;0.65;;;18.10;99.90;;;;;;5118344;28;20302;-76
2022/08/09 07:02:46;;;;;;;2.05;1.20;;;18.10;99.90;;;;;;5122902;28;20311;-74
2022/08/09 07:05:12;;;;;;;2.60;0.57;;;18.20;99.90;;;;;;5117896;28;20096;-74
2022/08/09 07:07:38;;;;;;;0.50;0.50;;;18.50;99.90;;;;;;5096936;28;20043;-74
2022/08/09 07:10:04;;;;;;;1.77;0.60;;;19.20;99.90;;;;;;5102240;28;20030;-74
2022/08/09 07:12:30;;;;;;;0.70;0.63;;;20.40;99.90;;;;;;5116009;28;20051;-78
2022/08/09 07:14:56;;;;;;;0.30;0.30;;;21.80;95.10;;;;;;5122421;28;20035;-77
2022/08/09 07:17:21;;;;;;;0.95;0.95;;;22.50;84.60;;;;;;5097743;28;20063;-75
2022/08/09 07:19:47;;;;;;;0.25;0.25;;;23.10;81.50;;;;;;5104779;28;20019;-74
2022/08/09 07:22:13;;;;;;;6.75;0.85;;;23.40;75.20;;;;;;5124512;28;20031;-74
2022/08/09 07:24:39;;;;;;;1.48;0.45;;;23.80;71.10;;;;;;5117177;28;20022;-74
2022/08/09 07:27:04;;;;;;;2.83;1.65;;;24.50;69.30;;;;;;5102872;28;20036;-78
2022/08/09 07:29:30;;;;;;;0.30;0.30;;;24.90;65.70;;;;;;5103998;28;20030;-79
2022/08/09 07:31:57;;;;;;;0.30;0.30;;;25.50;64.80;;;;;;5104093;28;20034;-77
2022/08/09 07:34:23;;;;;;;0.73;0.47;;;25.60;62.80;;;;;;5118431;28;20011;-79
2022/08/09 07:36:49;;;;;;;0.22;0.22;;;25.40;63.20;;;;;;5121616;28;20042;-76
2022/08/09 07:39:15;;;;;;;0.50;0.50;;;25.60;62.90;;;;;;5105274;28;20015;-75
2022/08/09 07:41:40;;;;;;;0.32;0.32;;;25.70;62.20;;;;;;5105501;28;20378;-81
2022/08/09 07:44:06;;;;;;;0.40;0.40;;;25.20;63.00;;;;;;5100990;28;20024;-79
2022/08/09 07:46:32;;;;;;;0.40;0.40;;;24.70;64.30;;;;;;5117713;28;20032;-78
2022/08/09 07:48:58;;;;;;;0.70;0.70;;;24.80;65.50;;;;;;5117875;28;20024;-76
2022/08/09 07:51:23;;;;;;;0.45;0.45;;;24.40;65.70;;;;;;5121580;28;20324;-74
2022/08/09 07:53:50;;;;;;;0.60;0.40;;;24.60;67.10;;;;;;5121719;28;20118;-78
2022/08/09 07:56:16;;;;;;;1.27;0.50;;;25.30;65.50;;;;;;5124741;28;20054;-77
2022/08/09 07:58:42;;;;;;;1.35;0.40;;;25.90;63.30;;;;;;5099371;28;20019;-74
2022/08/09 08:01:08;;;;;;;0.52;0.52;;;26.30;61.90;;;;;;5117179;28;20419;-73
2022/08/09 08:03:33;;;;;;;0.30;0.30;;;26.40;61.10;;;;;;5098374;28;20483;-78
2022/08/09 08:05:59;;;;;;;0.52;0.47;;;26.30;61.30;;;;;;5117413;28;20529;-77
2022/08/09 08:08:25;;;;;;;0.25;0.25;;;26.20;62.10;;;;;;5116534;28;20369;-75
2022/08/09 08:10:51;;;;;;;2.92;0.47;;;26.00;61.50;;;;;;5115261;28;20046;-79
2022/08/09 08:13:17;;;;;;;0.20;0.20;;;26.40;61.40;;;;;;5097012;28;20314;-74
2022/08/09 08:15:42;;;;;;;0.40;0.38;;;26.70;60.10;;;;;;5095934;28;20059;-74
2022/08/09 08:18:08;;;;;;;0.90;0.50;;;26.40;61.40;;;;;;5098755;28;20539;-78
2022/08/09 08:20:34;;;;;;;0.47;0.47;;;27.10;59.90;;;;;;5115608;28;20020;-78
2022/08/09 08:23:02;;;;;;;0.55;0.55;;;27.20;59.70;;;;;;5114420;28;20024;-77
2022/08/09 08:25:28;;;;;;;0.30;0.30;;;28.20;57.80;;;;;;5114631;28;20023;-75
2022/08/09 08:27:53;;;;;;;0.30;0.30;;;28.60;56.10;;;;;;5113724;28;20032;-78
2022/08/09 08:30:19;;;;;;;0.65;0.65;;;29.20;55.50;;;;;;5113758;28;20533;-78
2022/08/09 08:32:45;;;;;;;43.25;2.90;;;29.00;55.40;;;;;;5095646;28;20032;-81
2022/08/09 08:35:11;;;;;;;0.30;0.30;;;28.10;55.80;;;;;;5114291;28;20055;-80
2022/08/09 08:37:37;;;;;;;0.20;0.20;;;28.20;55.40;;;;;;5113752;28;20073;-78
2022/08/09 08:40:04;;;;;;;0.45;0.45;;;28.30;55.70;;;;;;5114006;28;20042;-79
2022/08/09 08:42:31;;;;;;;0.50;0.50;;;29.00;54.20;;;;;;5113635;28;20042;-76
2022/08/09 08:44:59;;;;;;;1.58;0.22;;;29.20;53.60;;;;;;5114039;28;20094;-80
2022/08/09 08:47:28;;;;;;;1.27;0.50;;;28.60;55.60;;;;;;5096036;28;20036;-83
2022/08/09 08:49:56;;;;;;;0.30;0.30;;;28.90;54.70;;;;;;5095402;28;20055;-75
2022/08/09 08:52:27;;;;;;;0.40;0.40;;;29.30;54.00;;;;;;5094935;28;20047;-75
2022/08/09 08:54:53;;;;;;;2.13;1.60;;;29.30;54.30;;;;;;5095273;28;20451;-75
2022/08/09 08:57:23;;;;;;;0.20;0.20;;;29.00;54.70;;;;;;5113557;28;20020;-75
2022/08/09 08:59:50;;;;;;;1.13;0.80;;;28.50;55.20;;;;;;5095630;28;20055;-76
2022/08/09 09:02:36;;;;;;;0.30;0.30;;;28.30;55.00;;;;;;5095338;28;20383;-75
2022/08/09 09:05:02;;;;;;;0.20;0.20;;;27.80;55.60;;;;;;5095320;28;20059;-77
2022/08/09 09:07:32;;;;;;;0.25;0.25;;;28.10;55.80;;;;;;5115314;28;20027;-75
2022/08/09 09:09:57;;;;;;;0.28;0.28;;;27.90;55.60;;;;;;5113216;28;20471;-77
2022/08/09 09:12:30;;;;;;;2.55;0.52;;;28.00;55.90;;;;;;5099622;28;20064;-74
2022/08/09 09:14:59;;;;;;;0.50;0.50;;;27.90;55.10;;;;;;5119641;28;20023;-74
2022/08/09 09:17:25;;;;;;;1.33;0.20;;;28.40;55.90;;;;;;5117440;28;20016;-73
2022/08/09 09:19:52;;;;;;;0.30;0.30;;;28.90;54.20;;;;;;5117284;28;20027;-74
2022/08/09 09:22:19;;;;;;;0.35;0.25;;;29.00;53.20;;;;;;5117326;28;20081;-73
2022/08/09 09:24:51;;;;;;;0.82;0.82;;;28.70;53.40;;;;;;5117106;28;20103;-75
2022/08/09 09:27:19;;;;;;;0.52;0.50;;;28.30;54.40;;;;;;5116971;28;20027;-74
2022/08/09 09:29:46;;;;;;;0.30;0.30;;;27.90;54.70;;;;;;5117136;28;20068;-76
2022/08/09 09:32:17;;;;;;;0.40;0.32;;;27.90;55.20;;;;;;5117024;28;20027;-77
2022/08/09 09:35:04;;;;;;;6.95;0.45;;;27.90;55.10;;;;;;5116964;28;20063;-77
2022/08/09 09:37:30;;;;;;;0.75;0.57;;;27.70;56.70;;;;;;5117428;28;20035;-78
2022/08/09 09:39:56;;;;;;;0.10;0.10;;;27.50;55.00;;;;;;5116955;28;20015;-73
2022/08/09 09:42:24;;;;;;;0.20;0.20;;;27.60;56.10;;;;;;5116764;28;20032;-77
2022/08/09 09:44:57;;;;;;;0.30;0.30;;;27.70;55.70;;;;;;5116689;28;21022;-78
2022/08/09 09:47:23;;;;;;;0.77;0.77;;;27.50;55.50;;;;;;5116609;28;20028;-74
2022/08/09 09:49:51;;;;;;;0.47;0.47;;;27.70;55.60;;;;;;5116812;28;20019;-74
2022/08/09 09:52:16;;;;;;;2.28;0.88;;;27.80;54.80;;;;;;5116523;28;20091;-77
2022/08/09 09:54:47;;;;;;;0.60;0.60;;;28.10;54.20;;;;;;5098253;28;20219;-78
2022/08/09 09:57:22;;;;;;;0.30;0.30;;;28.10;54.10;;;;;;5098309;28;20024;-76
2022/08/09 09:59:50;;;;;;;0.63;0.55;;;28.10;53.70;;;;;;5098799;28;20027;-74
2022/08/09 10:02:17;;;;;;;1.25;0.85;;;28.10;56.00;;;;;;5116336;28;20050;-77
2022/08/09 10:04:44;;;;;;;1.25;0.60;;;28.00;54.00;;;;;;5098197;28;20019;-76
2022/08/09 10:07:26;;;;;;;0.40;0.40;;;28.00;55.90;;;;;;5116407;28;20027;-73
2022/08/09 10:09:55;;;;;;;0.20;0.20;;;27.50;54.00;;;;;;5116373;28;20015;-74
2022/08/09 10:12:36;;;;;;;0.38;0.38;;;27.20;54.10;;;;;;5098056;28;20110;-73
2022/08/09 10:15:10;;;;;;;0.28;0.28;;;27.40;55.00;;;;;;5116165;28;20073;-75
2022/08/09 10:17:37;;;;;;;0.10;0.10;;;27.60;54.10;;;;;;5098025;28;20448;-73
2022/08/09 10:20:22;;;;;;;0.47;0.47;;;27.90;53.90;;;;;;5097694;28;20502;-77
2022/08/09 10:22:52;;;;;;;0.50;0.50;;;28.20;53.80;;;;;;5106364;28;20169;-77
2022/08/09 10:25:18;;;;;;;0.20;0.20;;;28.20;53.40;;;;;;5101776;28;20115;-73
2022/08/09 10:27:45;;;;;;;0.20;0.20;;;28.20;53.10;;;;;;5107281;28;20044;-77
2022/08/09 10:30:13;;;;;;;0.60;0.60;;;28.20;52.80;;;;;;5126348;28;20049;-74
2022/08/09 10:32:39;;;;;;;0.20;0.20;;;28.20;52.20;;;;;;5122468;28;20510;-78
2022/08/09 10:35:07;;;;;;;0.28;0.28;;;28.30;52.30;;;;;;5103973;28;20066;-75
2022/08/09 10:37:33;;;;;;;0.22;0.22;;;28.80;51.10;;;;;;5118310;28;20039;-77
2022/08/09 10:39:59;;;;;;;0.32;0.32;;;28.80;52.00;;;;;;5096633;28;20480;-75
2022/08/09 10:42:25;;;;;;;0.80;0.35;;;28.90;51.00;;;;;;5115593;28;20028;-77
2022/08/09 10:45:07;;;;;;;0.43;0.43;;;28.90;50.90;;;;;;5096726;28;20034;-76
2022/08/09 10:48:06;;;;;;;0.30;0.30;;;29.10;50.90;;;;;;5096572;28;20171;-76
2022/08/09 10:53:48;;;;;;;1.42;0.30;;;29.60;50.00;;;;;;5115509;28;20128;-75
2022/08/09 10:56:41;;;;;;;0.55;0.55;;;30.10;51.20;;;;;;5115409;28;20028;-76
2022/08/09 10:59:22;;;;;;;0.52;0.52;;;30.00;49.90;;;;;;5093958;28;20104;-76
2022/08/09 11:01:51;;;;;;;0.30;0.30;;;29.90;49.40;;;;;;5101403;28;20042;-77
2022/08/09 11:04:25;;;;;;;0.22;0.22;;;30.30;49.50;;;;;;5103710;28;20019;-77
2022/08/09 11:06:57;;;;;;;0.45;0.45;;;30.50;49.30;;;;;;5107936;28;20236;-79
2022/08/09 11:09:56;;;;;;;0.32;0.32;;;30.50;47.20;;;;;;5123421;28;20024;-83
2022/08/09 11:12:23;;;;;;;0.40;0.38;;;30.20;48.00;;;;;;5059443;28;20033;-83
2022/08/09 11:14:54;;;;;;;0.20;0.20;;;30.10;48.80;;;;;;5102059;28;20024;-81
2022/08/09 11:17:20;;;;;;;0.20;0.20;;;30.20;47.40;;;;;;5101050;28;20031;-84
2022/08/09 11:20:06;;;;;;;0.52;0.22;;;31.10;47.00;;;;;;5119081;28;20024;-82
2022/08/09 11:22:43;;;;;;;0.52;0.35;;;31.80;46.80;;;;;;5103621;28;20064;-80
2022/08/09 11:25:10;;;;;;;0.88;0.88;;;31.70;46.40;;;;;;5100835;28;20020;-75
2022/08/09 11:27:45;;;;;;;3.80;0.70;;;31.30;47.40;;;;;;5115128;28;20028;-73
2022/08/09 11:30:12;;;;;;;2.40;0.43;;;31.40;46.80;;;;;;5114811;28;20073;-75
2022/08/09 11:33:24;;;;;;;1.58;0.60;;;31.30;46.60;;;;;;5118605;28;20395;-75
2022/08/09 11:35:58;;;;;;;0.45;0.45;;;31.70;47.30;;;;;;5113990;28;20020;-75
2022/08/09 11:38:29;;;;;;;0.20;0.20;;;31.80;45.70;;;;;;5114685;28;20037;-74
2022/08/09 11:40:55;;;;;;;2.35;1.38;;;31.50;46.30;;;;;;5118527;28;20024;-73
2022/08/09 11:43:25;;;;;;;1.98;0.30;;;31.40;46.60;;;;;;5096561;28;20069;-74
2022/08/09 11:45:59;;;;;;;0.30;0.30;;;31.90;45.40;;;;;;5114300;28;20494;-74
2022/08/09 11:48:30;;;;;;;0.30;0.30;;;32.40;45.80;;;;;;5114231;28;20037;-74
2022/08/09 11:51:04;;;;;;;0.57;0.57;;;33.00;44.70;;;;;;5096534;28;20028;-75
2022/08/09 11:53:31;;;;;;;0.50;0.50;;;33.50;43.00;;;;;;5095985;28;20405;-76
2022/08/09 11:56:14;;;;;;;1.15;0.40;;;32.80;43.40;;;;;;5096513;28;20216;-74
2022/08/09 11:58:47;;;;;;;0.52;0.30;;;33.00;43.90;;;;;;5095937;28;20027;-76
2022/08/09 12:01:15;;;;;;;0.80;0.25;;;33.80;43.80;;;;;;5113960;28;20041;-75
2022/08/09 12:03:45;;;;;;;0.40;0.40;;;34.30;41.70;;;;;;5115725;28;20030;-78
2022/08/09 12:06:14;;;;;;;0.30;0.30;;;34.10;41.70;;;;;;5123648;28;20051;-76
2022/08/09 12:08:50;;;;;;;;;;;34.50;42.40;;;;;;5123881;28;20028;-78
2022/08/09 12:11:19;;;;;;;0.20;0.20;;;35.30;42.90;;;;;;5123277;28;20092;-77
2022/08/09 12:13:54;;;;;;;0.63;0.63;;;36.20;40.80;;;;;;5123434;28;20052;-77
2022/08/09 12:16:31;;;;;;;0.57;0.30;;;36.40;40.50;;;;;;5123825;28;20023;-75
2022/08/09 12:18:58;;;;;;;0.50;0.50;;;36.80;40.70;;;;;;5123440;28;20015;-75
2022/08/09 12:21:28;;;;;;;0.75;0.75;;;36.90;41.80;;;;;;5123212;28;20023;-74
2022/08/09 12:24:00;;;;;;;1.45;0.40;;;37.00;40.30;;;;;;5123544;28;20079;-76
2022/08/09 12:26:43;;;;;;;0.25;0.25;;;36.70;40.70;;;;;;5123211;28;20027;-76
2022/08/09 12:29:14;;;;;;;0.30;0.30;;;35.50;41.20;;;;;;5123628;28;20305;-74
2022/08/09 12:31:40;;;;;;;0.30;0.30;;;35.80;40.50;;;;;;5123152;28;20087;-75
2022/08/09 12:34:05;;;;;;;6.60;0.85;;;35.30;40.30;;;;;;5123383;28;20216;-75
2022/08/09 12:36:34;;;;;;;0.50;0.50;;;35.50;42.50;;;;;;5123069;28;20023;-74
2022/08/09 12:39:00;;;;;;;;;;;36.40;40.20;;;;;;5123415;28;20028;-75
2022/08/09 12:41:28;;;;;;;0.20;0.20;;;37.30;38.20;;;;;;5105140;28;19906;-75
2022/08/09 12:43:54;;;;;;;;;;;37.80;38.10;;;;;;5123443;28;20024;-74
2022/08/09 12:46:22;;;;;;;0.28;0.28;;;38.00;37.30;;;;;;5123210;28;19944;-74
2022/08/09 12:48:48;;;;;;;1.40;0.30;;;38.20;37.10;;;;;;5126097;28;20083;-74
2022/08/09 12:51:16;;;;;;;0.20;0.20;;;38.70;36.70;;;;;;5128010;28;20030;-77
2022/08/09 12:53:42;;;;;;;0.70;0.15;;;38.90;36.10;;;;;;5108753;28;20043;-77
2022/08/09 12:56:19;;;;;;;0.68;0.68;;;38.00;36.60;;;;;;5109157;28;20393;-75
2022/08/09 12:59:12;;;;;;;0.77;0.77;;;36.40;38.60;;;;;;5109844;28;20023;-75